sensor_id;sensor_type;location;lat;lon;timestamp;temperature;humidity
75217;HTU21D;63800;51.972;5.682;2023-07-16T00:01:56;18.55;65.88
75217;HTU21D;63800;51.972;5.682;2023-07-16T00:04:22;18.53;65.19
75217;HTU21D;63800;51.972;5.682;2023-07-16T00:06:48;18.47;65.16
75217;HTU21D;63800;51.972;5.682;2023-07-16T00:09:13;18.50;66.13
75217;HTU21D;63800;51.972;5.682;2023-07-16T00:11:38;18.54;66.35
75217;HTU21D;63800;51.972;5.682;2023-07-16T00:14:04;18.55;66.17
75217;HTU21D;63800;51.972;5.682;2023-07-16T00:16:30;18.17;66.85
75217;HTU21D;63800;51.972;5.682;2023-07-16T00:18:56;18.17;66.88
75217;HTU21D;63800;51.972;5.682;2023-07-16T00:21:21;18.00;67.91
75217;HTU21D;63800;51.972;5.682;2023-07-16T00:23:46;18.00;68.72
75217;HTU21D;63800;51.972;5.682;2023-07-16T00:26:13;17.96;69.36
75217;HTU21D;63800;51.972;5.682;2023-07-16T00:28:38;17.91;69.71
75217;HTU21D;63800;51.972;5.682;2023-07-16T00:31:03;17.66;70.06
75217;HTU21D;63800;51.972;5.682;2023-07-16T00:33:29;17.84;70.36
75217;HTU21D;63800;51.972;5.682;2023-07-16T00:35:55;17.96;70.75
75217;HTU21D;63800;51.972;5.682;2023-07-16T00:38:20;17.66;72.73
75217;HTU21D;63800;51.972;5.682;2023-07-16T00:40:46;17.51;73.65
75217;HTU21D;63800;51.972;5.682;2023-07-16T00:43:12;17.78;73.17
75217;HTU21D;63800;51.972;5.682;2023-07-16T00:45:41;17.39;75.95
75217;HTU21D;63800;51.972;5.682;2023-07-16T00:48:07;17.43;76.79
75217;HTU21D;63800;51.972;5.682;2023-07-16T00:50:34;17.31;78.95
75217;HTU21D;63800;51.972;5.682;2023-07-16T00:53:05;17.39;79.71
75217;HTU21D;63800;51.972;5.682;2023-07-16T00:55:31;17.18;81.30
75217;HTU21D;63800;51.972;5.682;2023-07-16T00:58:01;17.26;79.33
75217;HTU21D;63800;51.972;5.682;2023-07-16T01:00:39;17.51;76.98
75217;HTU21D;63800;51.972;5.682;2023-07-16T01:03:07;17.56;76.14
75217;HTU21D;63800;51.972;5.682;2023-07-16T01:08:10;17.75;74.28
75217;HTU21D;63800;51.972;5.682;2023-07-16T01:10:38;17.72;74.27
75217;HTU21D;63800;51.972;5.682;2023-07-16T01:13:04;17.76;74.06
75217;HTU21D;63800;51.972;5.682;2023-07-16T01:15:30;17.56;74.30
75217;HTU21D;63800;51.972;5.682;2023-07-16T01:17:55;17.62;73.86
75217;HTU21D;63800;51.972;5.682;2023-07-16T01:20:21;17.47;74.26
75217;HTU21D;63800;51.972;5.682;2023-07-16T01:23:48;17.64;73.02
75217;HTU21D;63800;51.972;5.682;2023-07-16T01:30:45;17.44;73.63
75217;HTU21D;63800;51.972;5.682;2023-07-16T01:33:12;17.47;74.17
75217;HTU21D;63800;51.972;5.682;2023-07-16T01:35:39;17.38;74.70
75217;HTU21D;63800;51.972;5.682;2023-07-16T01:38:06;17.45;74.41
75217;HTU21D;63800;51.972;5.682;2023-07-16T01:40:32;17.56;74.13
75217;HTU21D;63800;51.972;5.682;2023-07-16T01:42:57;17.06;76.47
75217;HTU21D;63800;51.972;5.682;2023-07-16T01:45:23;17.05;76.02
75217;HTU21D;63800;51.972;5.682;2023-07-16T01:50:26;17.04;77.30
75217;HTU21D;63800;51.972;5.682;2023-07-16T01:52:51;16.87;77.84
75217;HTU21D;63800;51.972;5.682;2023-07-16T01:55:17;16.92;77.66
75217;HTU21D;63800;51.972;5.682;2023-07-16T01:57:42;16.85;78.01
75217;HTU21D;63800;51.972;5.682;2023-07-16T02:00:08;16.84;78.35
75217;HTU21D;63800;51.972;5.682;2023-07-16T02:02:33;16.86;78.30
75217;HTU21D;63800;51.972;5.682;2023-07-16T02:04:59;16.75;78.09
75217;HTU21D;63800;51.972;5.682;2023-07-16T02:07:24;16.65;78.48
75217;HTU21D;63800;51.972;5.682;2023-07-16T02:09:50;16.64;78.75
75217;HTU21D;63800;51.972;5.682;2023-07-16T02:12:15;16.77;77.90
75217;HTU21D;63800;51.972;5.682;2023-07-16T02:14:41;16.60;77.63
75217;HTU21D;63800;51.972;5.682;2023-07-16T02:17:06;16.65;77.09
75217;HTU21D;63800;51.972;5.682;2023-07-16T02:19:32;16.56;77.06
75217;HTU21D;63800;51.972;5.682;2023-07-16T02:21:57;16.66;76.63
75217;HTU21D;63800;51.972;5.682;2023-07-16T02:24:23;16.78;75.76
75217;HTU21D;63800;51.972;5.682;2023-07-16T02:26:48;16.84;75.79
75217;HTU21D;63800;51.972;5.682;2023-07-16T02:29:14;16.70;75.84
75217;HTU21D;63800;51.972;5.682;2023-07-16T02:31:39;16.61;76.24
75217;HTU21D;63800;51.972;5.682;2023-07-16T02:34:04;16.57;76.43
75217;HTU21D;63800;51.972;5.682;2023-07-16T02:36:30;16.55;76.75
75217;HTU21D;63800;51.972;5.682;2023-07-16T02:38:55;16.82;75.97
75217;HTU21D;63800;51.972;5.682;2023-07-16T02:41:21;16.67;76.56
75217;HTU21D;63800;51.972;5.682;2023-07-16T02:43:46;16.46;77.76
75217;HTU21D;63800;51.972;5.682;2023-07-16T02:46:12;16.58;77.78
75217;HTU21D;63800;51.972;5.682;2023-07-16T02:48:37;16.43;78.51
75217;HTU21D;63800;51.972;5.682;2023-07-16T02:51:03;16.48;78.43
75217;HTU21D;63800;51.972;5.682;2023-07-16T02:53:28;16.41;78.68
75217;HTU21D;63800;51.972;5.682;2023-07-16T02:55:54;16.43;78.38
75217;HTU21D;63800;51.972;5.682;2023-07-16T02:58:19;16.63;78.00
75217;HTU21D;63800;51.972;5.682;2023-07-16T03:00:45;16.20;79.86
75217;HTU21D;63800;51.972;5.682;2023-07-16T03:03:10;16.33;79.35
75217;HTU21D;63800;51.972;5.682;2023-07-16T03:05:35;16.22;79.82
75217;HTU21D;63800;51.972;5.682;2023-07-16T03:08:01;16.16;80.24
75217;HTU21D;63800;51.972;5.682;2023-07-16T03:10:26;16.20;80.37
75217;HTU21D;63800;51.972;5.682;2023-07-16T03:12:53;16.20;80.80
75217;HTU21D;63800;51.972;5.682;2023-07-16T03:15:18;16.14;81.79
75217;HTU21D;63800;51.972;5.682;2023-07-16T03:17:44;16.25;82.04
75217;HTU21D;63800;51.972;5.682;2023-07-16T03:20:09;16.04;84.19
75217;HTU21D;63800;51.972;5.682;2023-07-16T03:22:35;16.19;84.01
75217;HTU21D;63800;51.972;5.682;2023-07-16T03:25:01;15.83;86.76
75217;HTU21D;63800;51.972;5.682;2023-07-16T03:27:27;15.99;85.74
75217;HTU21D;63800;51.972;5.682;2023-07-16T03:29:52;15.87;85.26
75217;HTU21D;63800;51.972;5.682;2023-07-16T03:32:18;16.14;83.58
75217;HTU21D;63800;51.972;5.682;2023-07-16T03:34:43;16.13;82.96
75217;HTU21D;63800;51.972;5.682;2023-07-16T03:37:08;16.22;81.72
75217;HTU21D;63800;51.972;5.682;2023-07-16T03:39:34;16.08;81.81
75217;HTU21D;63800;51.972;5.682;2023-07-16T03:41:59;16.17;81.46
75217;HTU21D;63800;51.972;5.682;2023-07-16T03:44:25;16.28;80.23
75217;HTU21D;63800;51.972;5.682;2023-07-16T03:46:50;16.32;79.18
75217;HTU21D;63800;51.972;5.682;2023-07-16T03:49:15;16.19;79.72
75217;HTU21D;63800;51.972;5.682;2023-07-16T03:51:41;16.15;79.46
75217;HTU21D;63800;51.972;5.682;2023-07-16T03:54:06;16.32;78.21
75217;HTU21D;63800;51.972;5.682;2023-07-16T03:56:32;16.28;78.14
75217;HTU21D;63800;51.972;5.682;2023-07-16T03:58:57;16.25;77.91
75217;HTU21D;63800;51.972;5.682;2023-07-16T04:01:23;16.31;77.23
75217;HTU21D;63800;51.972;5.682;2023-07-16T04:03:48;16.43;76.92
75217;HTU21D;63800;51.972;5.682;2023-07-16T04:06:14;16.48;76.21
75217;HTU21D;63800;51.972;5.682;2023-07-16T04:08:39;16.51;76.41
75217;HTU21D;63800;51.972;5.682;2023-07-16T04:11:05;16.57;76.32
75217;HTU21D;63800;51.972;5.682;2023-07-16T04:13:31;16.43;77.25
75217;HTU21D;63800;51.972;5.682;2023-07-16T04:15:57;16.48;77.23
75217;HTU21D;63800;51.972;5.682;2023-07-16T04:18:23;16.50;77.61
75217;HTU21D;63800;51.972;5.682;2023-07-16T04:20:49;16.34;78.85
75217;HTU21D;63800;51.972;5.682;2023-07-16T04:23:15;16.29;79.15
75217;HTU21D;63800;51.972;5.682;2023-07-16T04:25:40;16.26;79.78
75217;HTU21D;63800;51.972;5.682;2023-07-16T04:28:06;16.29;79.87
75217;HTU21D;63800;51.972;5.682;2023-07-16T04:30:31;16.35;79.98
75217;HTU21D;63800;51.972;5.682;2023-07-16T04:32:57;16.27;80.68
75217;HTU21D;63800;51.972;5.682;2023-07-16T04:35:22;16.41;80.06
75217;HTU21D;63800;51.972;5.682;2023-07-16T04:37:48;16.39;79.39
75217;HTU21D;63800;51.972;5.682;2023-07-16T04:40:13;16.44;79.23
75217;HTU21D;63800;51.972;5.682;2023-07-16T04:42:39;16.41;78.95
75217;HTU21D;63800;51.972;5.682;2023-07-16T04:45:04;16.49;78.11
75217;HTU21D;63800;51.972;5.682;2023-07-16T04:47:31;16.45;77.86
75217;HTU21D;63800;51.972;5.682;2023-07-16T04:49:58;16.47;77.31
75217;HTU21D;63800;51.972;5.682;2023-07-16T04:52:23;16.42;77.29
75217;HTU21D;63800;51.972;5.682;2023-07-16T04:54:49;16.41;76.93
75217;HTU21D;63800;51.972;5.682;2023-07-16T04:57:14;16.37;76.41
75217;HTU21D;63800;51.972;5.682;2023-07-16T04:59:40;16.27;77.28
75217;HTU21D;63800;51.972;5.682;2023-07-16T05:02:06;16.24;76.76
75217;HTU21D;63800;51.972;5.682;2023-07-16T05:04:35;16.32;76.42
75217;HTU21D;63800;51.972;5.682;2023-07-16T05:07:04;16.31;76.24
75217;HTU21D;63800;51.972;5.682;2023-07-16T05:09:29;16.36;76.27
75217;HTU21D;63800;51.972;5.682;2023-07-16T05:11:55;16.21;76.77
75217;HTU21D;63800;51.972;5.682;2023-07-16T05:14:20;16.36;75.50
75217;HTU21D;63800;51.972;5.682;2023-07-16T05:16:46;16.22;75.76
75217;HTU21D;63800;51.972;5.682;2023-07-16T05:19:11;16.34;75.36
75217;HTU21D;63800;51.972;5.682;2023-07-16T05:21:37;16.29;74.87
75217;HTU21D;63800;51.972;5.682;2023-07-16T05:24:03;16.37;74.41
75217;HTU21D;63800;51.972;5.682;2023-07-16T05:26:29;16.59;74.12
75217;HTU21D;63800;51.972;5.682;2023-07-16T05:28:54;16.56;74.02
75217;HTU21D;63800;51.972;5.682;2023-07-16T05:31:20;16.48;74.70
75217;HTU21D;63800;51.972;5.682;2023-07-16T05:33:45;16.41;74.57
75217;HTU21D;63800;51.972;5.682;2023-07-16T05:36:11;16.21;75.01
75217;HTU21D;63800;51.972;5.682;2023-07-16T05:38:36;16.31;74.62
75217;HTU21D;63800;51.972;5.682;2023-07-16T05:41:05;16.39;74.54
75217;HTU21D;63800;51.972;5.682;2023-07-16T05:43:31;16.44;74.76
75217;HTU21D;63800;51.972;5.682;2023-07-16T05:45:58;16.45;74.51
75217;HTU21D;63800;51.972;5.682;2023-07-16T05:48:24;16.52;73.27
75217;HTU21D;63800;51.972;5.682;2023-07-16T05:50:50;16.54;73.73
75217;HTU21D;63800;51.972;5.682;2023-07-16T05:53:15;16.57;73.89
75217;HTU21D;63800;51.972;5.682;2023-07-16T05:55:40;16.67;73.09
75217;HTU21D;63800;51.972;5.682;2023-07-16T05:58:06;16.61;73.52
75217;HTU21D;63800;51.972;5.682;2023-07-16T06:00:31;16.44;74.12
75217;HTU21D;63800;51.972;5.682;2023-07-16T06:02:57;16.62;73.61
75217;HTU21D;63800;51.972;5.682;2023-07-16T06:05:23;16.59;73.27
75217;HTU21D;63800;51.972;5.682;2023-07-16T06:07:50;16.63;73.07
75217;HTU21D;63800;51.972;5.682;2023-07-16T06:10:15;16.67;72.55
75217;HTU21D;63800;51.972;5.682;2023-07-16T06:12:41;16.48;73.16
75217;HTU21D;63800;51.972;5.682;2023-07-16T06:15:07;16.56;73.43
75217;HTU21D;63800;51.972;5.682;2023-07-16T06:17:32;16.77;72.92
75217;HTU21D;63800;51.972;5.682;2023-07-16T06:19:58;16.62;73.38
75217;HTU21D;63800;51.972;5.682;2023-07-16T06:22:23;16.75;73.31
75217;HTU21D;63800;51.972;5.682;2023-07-16T06:24:48;16.76;72.85
75217;HTU21D;63800;51.972;5.682;2023-07-16T06:27:14;16.69;72.74
75217;HTU21D;63800;51.972;5.682;2023-07-16T06:29:39;16.87;72.32
75217;HTU21D;63800;51.972;5.682;2023-07-16T06:32:05;16.82;72.20
75217;HTU21D;63800;51.972;5.682;2023-07-16T06:34:31;16.94;72.29
75217;HTU21D;63800;51.972;5.682;2023-07-16T06:36:56;17.00;72.01
75217;HTU21D;63800;51.972;5.682;2023-07-16T06:39:22;16.95;71.83
75217;HTU21D;63800;51.972;5.682;2023-07-16T06:41:47;16.95;71.84
75217;HTU21D;63800;51.972;5.682;2023-07-16T06:44:13;17.16;71.61
75217;HTU21D;63800;51.972;5.682;2023-07-16T06:46:39;17.21;71.65
75217;HTU21D;63800;51.972;5.682;2023-07-16T06:49:05;17.32;71.29
75217;HTU21D;63800;51.972;5.682;2023-07-16T06:51:32;17.26;71.38
75217;HTU21D;63800;51.972;5.682;2023-07-16T06:53:57;17.29;71.17
75217;HTU21D;63800;51.972;5.682;2023-07-16T06:56:23;17.39;70.68
75217;HTU21D;63800;51.972;5.682;2023-07-16T06:58:48;17.25;70.60
75217;HTU21D;63800;51.972;5.682;2023-07-16T07:01:14;17.40;71.13
75217;HTU21D;63800;51.972;5.682;2023-07-16T07:03:39;17.47;71.00
75217;HTU21D;63800;51.972;5.682;2023-07-16T07:06:04;17.52;70.55
75217;HTU21D;63800;51.972;5.682;2023-07-16T07:08:30;17.48;71.08
75217;HTU21D;63800;51.972;5.682;2023-07-16T07:10:56;17.55;71.07
75217;HTU21D;63800;51.972;5.682;2023-07-16T07:13:21;17.74;70.69
75217;HTU21D;63800;51.972;5.682;2023-07-16T07:15:48;17.79;70.56
75217;HTU21D;63800;51.972;5.682;2023-07-16T07:18:13;17.58;70.69
75217;HTU21D;63800;51.972;5.682;2023-07-16T07:20:41;17.72;70.74
75217;HTU21D;63800;51.972;5.682;2023-07-16T07:23:07;17.55;70.97
75217;HTU21D;63800;51.972;5.682;2023-07-16T07:25:32;17.66;70.45
75217;HTU21D;63800;51.972;5.682;2023-07-16T07:27:58;17.64;71.15
75217;HTU21D;63800;51.972;5.682;2023-07-16T07:30:23;17.77;71.11
75217;HTU21D;63800;51.972;5.682;2023-07-16T07:32:49;17.95;69.86
75217;HTU21D;63800;51.972;5.682;2023-07-16T07:35:14;17.91;70.33
75217;HTU21D;63800;51.972;5.682;2023-07-16T07:37:40;18.28;69.84
75217;HTU21D;63800;51.972;5.682;2023-07-16T07:40:06;18.47;70.05
75217;HTU21D;63800;51.972;5.682;2023-07-16T07:42:32;18.33;69.85
75217;HTU21D;63800;51.972;5.682;2023-07-16T07:44:58;18.34;69.71
75217;HTU21D;63800;51.972;5.682;2023-07-16T07:47:23;18.32;69.18
75217;HTU21D;63800;51.972;5.682;2023-07-16T07:49:50;18.38;68.78
75217;HTU21D;63800;51.972;5.682;2023-07-16T07:52:15;18.23;69.12
75217;HTU21D;63800;51.972;5.682;2023-07-16T07:54:41;18.48;68.91
75217;HTU21D;63800;51.972;5.682;2023-07-16T07:57:07;18.36;68.91
75217;HTU21D;63800;51.972;5.682;2023-07-16T07:59:32;18.56;68.92
75217;HTU21D;63800;51.972;5.682;2023-07-16T08:01:58;18.70;68.55
75217;HTU21D;63800;51.972;5.682;2023-07-16T08:04:24;18.61;68.52
75217;HTU21D;63800;51.972;5.682;2023-07-16T08:06:50;18.83;67.98
75217;HTU21D;63800;51.972;5.682;2023-07-16T08:09:16;18.69;67.96
75217;HTU21D;63800;51.972;5.682;2023-07-16T08:11:41;18.52;68.68
75217;HTU21D;63800;51.972;5.682;2023-07-16T08:14:07;18.61;68.24
75217;HTU21D;63800;51.972;5.682;2023-07-16T08:16:32;18.67;67.84
75217;HTU21D;63800;51.972;5.682;2023-07-16T08:18:58;18.80;67.19
75217;HTU21D;63800;51.972;5.682;2023-07-16T08:21:23;18.68;67.62
75217;HTU21D;63800;51.972;5.682;2023-07-16T08:23:49;18.63;68.58
75217;HTU21D;63800;51.972;5.682;2023-07-16T08:26:16;18.74;67.84
75217;HTU21D;63800;51.972;5.682;2023-07-16T08:28:41;19.03;66.81
75217;HTU21D;63800;51.972;5.682;2023-07-16T08:31:07;19.24;65.55
75217;HTU21D;63800;51.972;5.682;2023-07-16T08:33:32;19.07;64.98
75217;HTU21D;63800;51.972;5.682;2023-07-16T08:35:58;19.08;65.53
75217;HTU21D;63800;51.972;5.682;2023-07-16T08:38:23;19.10;64.79
75217;HTU21D;63800;51.972;5.682;2023-07-16T08:40:48;19.03;64.75
75217;HTU21D;63800;51.972;5.682;2023-07-16T08:43:16;19.40;64.84
75217;HTU21D;63800;51.972;5.682;2023-07-16T08:45:41;19.59;64.29
75217;HTU21D;63800;51.972;5.682;2023-07-16T08:48:11;19.55;64.11
75217;HTU21D;63800;51.972;5.682;2023-07-16T08:50:37;19.37;64.75
75217;HTU21D;63800;51.972;5.682;2023-07-16T08:53:06;19.52;63.98
75217;HTU21D;63800;51.972;5.682;2023-07-16T08:55:33;19.36;64.34
75217;HTU21D;63800;51.972;5.682;2023-07-16T08:58:01;19.46;65.00
75217;HTU21D;63800;51.972;5.682;2023-07-16T09:00:26;19.79;64.18
75217;HTU21D;63800;51.972;5.682;2023-07-16T09:02:52;19.62;64.22
75217;HTU21D;63800;51.972;5.682;2023-07-16T09:05:20;19.74;63.11
75217;HTU21D;63800;51.972;5.682;2023-07-16T09:07:46;19.56;63.69
75217;HTU21D;63800;51.972;5.682;2023-07-16T09:10:12;19.52;63.85
75217;HTU21D;63800;51.972;5.682;2023-07-16T09:12:46;19.62;64.04
75217;HTU21D;63800;51.972;5.682;2023-07-16T09:15:17;19.57;64.62
75217;HTU21D;63800;51.972;5.682;2023-07-16T09:17:42;19.47;64.03
75217;HTU21D;63800;51.972;5.682;2023-07-16T09:20:11;19.36;65.68
75217;HTU21D;63800;51.972;5.682;2023-07-16T09:22:36;19.59;64.57
75217;HTU21D;63800;51.972;5.682;2023-07-16T09:25:03;19.41;65.10
75217;HTU21D;63800;51.972;5.682;2023-07-16T09:27:29;19.12;65.83
75217;HTU21D;63800;51.972;5.682;2023-07-16T09:29:55;19.08;66.00
75217;HTU21D;63800;51.972;5.682;2023-07-16T09:32:20;19.28;65.85
75217;HTU21D;63800;51.972;5.682;2023-07-16T09:34:49;19.28;65.67
75217;HTU21D;63800;51.972;5.682;2023-07-16T09:37:15;19.38;64.92
75217;HTU21D;63800;51.972;5.682;2023-07-16T09:39:41;19.48;64.77
75217;HTU21D;63800;51.972;5.682;2023-07-16T09:42:07;19.75;63.08
75217;HTU21D;63800;51.972;5.682;2023-07-16T09:44:33;20.15;62.65
75217;HTU21D;63800;51.972;5.682;2023-07-16T09:46:59;19.94;62.16
75217;HTU21D;63800;51.972;5.682;2023-07-16T09:49:28;20.24;61.75
75217;HTU21D;63800;51.972;5.682;2023-07-16T09:51:56;20.02;62.50
75217;HTU21D;63800;51.972;5.682;2023-07-16T09:54:24;20.02;62.77
75217;HTU21D;63800;51.972;5.682;2023-07-16T09:56:53;20.10;62.76
75217;HTU21D;63800;51.972;5.682;2023-07-16T09:59:23;20.04;62.80
75217;HTU21D;63800;51.972;5.682;2023-07-16T10:01:50;20.12;62.66
75217;HTU21D;63800;51.972;5.682;2023-07-16T10:04:18;19.69;63.44
75217;HTU21D;63800;51.972;5.682;2023-07-16T10:06:59;20.00;62.69
75217;HTU21D;63800;51.972;5.682;2023-07-16T10:14:39;19.95;63.24
75217;HTU21D;63800;51.972;5.682;2023-07-16T10:17:05;19.70;63.20
75217;HTU21D;63800;51.972;5.682;2023-07-16T10:19:31;19.82;63.39
75217;HTU21D;63800;51.972;5.682;2023-07-16T10:21:56;19.91;63.18
75217;HTU21D;63800;51.972;5.682;2023-07-16T10:24:27;19.85;63.12
75217;HTU21D;63800;51.972;5.682;2023-07-16T10:26:52;19.62;64.01
75217;HTU21D;63800;51.972;5.682;2023-07-16T10:29:18;19.69;64.02
75217;HTU21D;63800;51.972;5.682;2023-07-16T10:31:44;19.54;64.52
75217;HTU21D;63800;51.972;5.682;2023-07-16T10:34:10;19.82;63.94
75217;HTU21D;63800;51.972;5.682;2023-07-16T10:36:40;19.71;64.20
75217;HTU21D;63800;51.972;5.682;2023-07-16T10:39:05;19.89;64.25
75217;HTU21D;63800;51.972;5.682;2023-07-16T10:41:31;19.97;63.21
75217;HTU21D;63800;51.972;5.682;2023-07-16T10:44:00;19.84;63.18
75217;HTU21D;63800;51.972;5.682;2023-07-16T10:46:27;19.88;63.10
75217;HTU21D;63800;51.972;5.682;2023-07-16T10:48:52;19.72;63.97
75217;HTU21D;63800;51.972;5.682;2023-07-16T10:51:18;19.62;63.99
75217;HTU21D;63800;51.972;5.682;2023-07-16T10:53:50;19.56;64.85
75217;HTU21D;63800;51.972;5.682;2023-07-16T10:56:15;19.57;64.65
75217;HTU21D;63800;51.972;5.682;2023-07-16T10:58:42;19.52;64.34
75217;HTU21D;63800;51.972;5.682;2023-07-16T11:01:10;19.42;64.69
75217;HTU21D;63800;51.972;5.682;2023-07-16T11:03:36;19.29;65.62
75217;HTU21D;63800;51.972;5.682;2023-07-16T11:06:08;19.33;65.08
75217;HTU21D;63800;51.972;5.682;2023-07-16T11:08:34;19.36;65.66
75217;HTU21D;63800;51.972;5.682;2023-07-16T11:11:00;19.76;65.00
75217;HTU21D;63800;51.972;5.682;2023-07-16T11:13:26;19.75;64.03
75217;HTU21D;63800;51.972;5.682;2023-07-16T11:15:52;19.99;63.71
75217;HTU21D;63800;51.972;5.682;2023-07-16T11:18:17;19.82;63.80
75217;HTU21D;63800;51.972;5.682;2023-07-16T11:20:43;19.99;64.50
75217;HTU21D;63800;51.972;5.682;2023-07-16T11:23:10;20.02;63.99
75217;HTU21D;63800;51.972;5.682;2023-07-16T11:25:36;19.90;64.43
75217;HTU21D;63800;51.972;5.682;2023-07-16T11:28:02;19.72;64.74
75217;HTU21D;63800;51.972;5.682;2023-07-16T11:30:28;19.90;65.01
75217;HTU21D;63800;51.972;5.682;2023-07-16T11:32:54;20.06;64.64
75217;HTU21D;63800;51.972;5.682;2023-07-16T11:35:20;20.35;62.92
75217;HTU21D;63800;51.972;5.682;2023-07-16T11:37:47;20.40;62.53
75217;HTU21D;63800;51.972;5.682;2023-07-16T11:40:17;20.39;63.20
75217;HTU21D;63800;51.972;5.682;2023-07-16T11:42:43;20.35;63.16
75217;HTU21D;63800;51.972;5.682;2023-07-16T11:45:20;20.33;63.88
75217;HTU21D;63800;51.972;5.682;2023-07-16T11:47:46;20.50;63.46
75217;HTU21D;63800;51.972;5.682;2023-07-16T11:50:12;20.77;62.89
75217;HTU21D;63800;51.972;5.682;2023-07-16T11:52:38;20.87;63.61
75217;HTU21D;63800;51.972;5.682;2023-07-16T11:55:04;20.91;61.36
75217;HTU21D;63800;51.972;5.682;2023-07-16T11:57:30;20.93;61.44
75217;HTU21D;63800;51.972;5.682;2023-07-16T11:59:56;20.49;62.66
75217;HTU21D;63800;51.972;5.682;2023-07-16T12:02:21;20.39;63.10
75217;HTU21D;63800;51.972;5.682;2023-07-16T12:04:47;20.59;62.71
75217;HTU21D;63800;51.972;5.682;2023-07-16T12:07:13;20.49;63.07
75217;HTU21D;63800;51.972;5.682;2023-07-16T12:09:39;20.47;63.04
75217;HTU21D;63800;51.972;5.682;2023-07-16T12:12:05;20.14;64.29
75217;HTU21D;63800;51.972;5.682;2023-07-16T12:14:31;20.13;64.40
75217;HTU21D;63800;51.972;5.682;2023-07-16T12:16:56;19.53;68.33
75217;HTU21D;63800;51.972;5.682;2023-07-16T12:19:22;19.86;68.81
75217;HTU21D;63800;51.972;5.682;2023-07-16T12:21:47;19.58;70.42
75217;HTU21D;63800;51.972;5.682;2023-07-16T12:24:13;21.34;65.14
75217;HTU21D;63800;51.972;5.682;2023-07-16T12:26:38;21.48;63.54
75217;HTU21D;63800;51.972;5.682;2023-07-16T12:29:04;21.92;61.57
75217;HTU21D;63800;51.972;5.682;2023-07-16T12:31:30;22.09;60.47
75217;HTU21D;63800;51.972;5.682;2023-07-16T12:33:57;22.17;59.84
75217;HTU21D;63800;51.972;5.682;2023-07-16T12:36:22;21.98;59.32
75217;HTU21D;63800;51.972;5.682;2023-07-16T12:38:47;22.69;57.91
75217;HTU21D;63800;51.972;5.682;2023-07-16T12:41:13;23.66;56.74
75217;HTU21D;63800;51.972;5.682;2023-07-16T12:43:40;22.34;58.41
75217;HTU21D;63800;51.972;5.682;2023-07-16T12:46:05;21.70;60.88
75217;HTU21D;63800;51.972;5.682;2023-07-16T12:48:31;21.72;60.61
75217;HTU21D;63800;51.972;5.682;2023-07-16T12:50:57;21.76;60.57
75217;HTU21D;63800;51.972;5.682;2023-07-16T12:53:24;21.68;60.18
75217;HTU21D;63800;51.972;5.682;2023-07-16T12:55:49;21.64;60.95
75217;HTU21D;63800;51.972;5.682;2023-07-16T12:58:15;21.42;61.34
75217;HTU21D;63800;51.972;5.682;2023-07-16T13:00:40;20.79;63.15
75217;HTU21D;63800;51.972;5.682;2023-07-16T13:03:06;20.94;63.54
75217;HTU21D;63800;51.972;5.682;2023-07-16T13:05:33;20.77;64.53
75217;HTU21D;63800;51.972;5.682;2023-07-16T13:07:59;20.29;65.81
75217;HTU21D;63800;51.972;5.682;2023-07-16T13:10:24;19.95;69.36
75217;HTU21D;63800;51.972;5.682;2023-07-16T13:12:50;19.83;70.49
75217;HTU21D;63800;51.972;5.682;2023-07-16T13:15:15;21.00;69.97
75217;HTU21D;63800;51.972;5.682;2023-07-16T13:17:41;21.39;68.52
75217;HTU21D;63800;51.972;5.682;2023-07-16T13:20:06;22.06;66.85
75217;HTU21D;63800;51.972;5.682;2023-07-16T13:22:32;21.33;64.54
75217;HTU21D;63800;51.972;5.682;2023-07-16T13:24:57;22.05;62.79
75217;HTU21D;63800;51.972;5.682;2023-07-16T13:27:23;22.41;61.50
75217;HTU21D;63800;51.972;5.682;2023-07-16T13:29:49;22.57;58.00
75217;HTU21D;63800;51.972;5.682;2023-07-16T13:32:15;22.56;59.83
75217;HTU21D;63800;51.972;5.682;2023-07-16T13:34:40;22.21;57.27
75217;HTU21D;63800;51.972;5.682;2023-07-16T13:37:06;22.39;56.20
75217;HTU21D;63800;51.972;5.682;2023-07-16T13:39:31;22.78;55.22
75217;HTU21D;63800;51.972;5.682;2023-07-16T13:41:57;22.63;54.42
75217;HTU21D;63800;51.972;5.682;2023-07-16T13:44:22;22.53;53.82
75217;HTU21D;63800;51.972;5.682;2023-07-16T13:46:48;23.21;53.08
75217;HTU21D;63800;51.972;5.682;2023-07-16T13:49:13;23.10;54.32
75217;HTU21D;63800;51.972;5.682;2023-07-16T13:51:39;23.30;54.31
75217;HTU21D;63800;51.972;5.682;2023-07-16T13:54:05;23.14;54.07
75217;HTU21D;63800;51.972;5.682;2023-07-16T13:56:30;23.61;53.49
75217;HTU21D;63800;51.972;5.682;2023-07-16T13:58:56;23.61;52.83
75217;HTU21D;63800;51.972;5.682;2023-07-16T14:01:22;23.60;51.43
75217;HTU21D;63800;51.972;5.682;2023-07-16T14:03:48;23.66;52.24
75217;HTU21D;63800;51.972;5.682;2023-07-16T14:06:13;23.29;52.36
75217;HTU21D;63800;51.972;5.682;2023-07-16T14:08:39;22.77;54.14
75217;HTU21D;63800;51.972;5.682;2023-07-16T14:11:04;22.44;53.97
75217;HTU21D;63800;51.972;5.682;2023-07-16T14:13:30;22.39;53.97
75217;HTU21D;63800;51.972;5.682;2023-07-16T14:15:55;22.46;54.07
75217;HTU21D;63800;51.972;5.682;2023-07-16T14:18:21;23.36;52.53
75217;HTU21D;63800;51.972;5.682;2023-07-16T14:20:46;23.37;52.00
75217;HTU21D;63800;51.972;5.682;2023-07-16T14:23:12;22.87;52.48
75217;HTU21D;63800;51.972;5.682;2023-07-16T14:25:37;22.71;53.29
75217;HTU21D;63800;51.972;5.682;2023-07-16T14:28:03;22.24;54.04
75217;HTU21D;63800;51.972;5.682;2023-07-16T14:30:28;22.17;54.91
75217;HTU21D;63800;51.972;5.682;2023-07-16T14:32:55;21.92;55.58
75217;HTU21D;63800;51.972;5.682;2023-07-16T14:35:21;21.79;56.07
75217;HTU21D;63800;51.972;5.682;2023-07-16T14:37:46;21.70;55.64
75217;HTU21D;63800;51.972;5.682;2023-07-16T14:40:12;21.63;54.82
75217;HTU21D;63800;51.972;5.682;2023-07-16T14:42:37;21.55;56.37
75217;HTU21D;63800;51.972;5.682;2023-07-16T14:45:03;21.47;57.22
75217;HTU21D;63800;51.972;5.682;2023-07-16T14:47:30;21.90;55.56
75217;HTU21D;63800;51.972;5.682;2023-07-16T14:49:56;22.38;55.82
75217;HTU21D;63800;51.972;5.682;2023-07-16T14:52:21;22.85;55.56
75217;HTU21D;63800;51.972;5.682;2023-07-16T14:54:47;22.73;53.84
75217;HTU21D;63800;51.972;5.682;2023-07-16T14:57:12;22.53;52.93
75217;HTU21D;63800;51.972;5.682;2023-07-16T14:59:38;22.29;53.51
75217;HTU21D;63800;51.972;5.682;2023-07-16T15:02:04;22.35;53.63
75217;HTU21D;63800;51.972;5.682;2023-07-16T15:04:29;22.21;53.12
75217;HTU21D;63800;51.972;5.682;2023-07-16T15:06:55;22.75;52.13
75217;HTU21D;63800;51.972;5.682;2023-07-16T15:09:21;23.01;51.40
75217;HTU21D;63800;51.972;5.682;2023-07-16T15:11:47;22.85;51.56
75217;HTU21D;63800;51.972;5.682;2023-07-16T15:14:12;22.91;52.27
75217;HTU21D;63800;51.972;5.682;2023-07-16T15:16:38;22.60;52.44
75217;HTU21D;63800;51.972;5.682;2023-07-16T15:19:03;22.41;53.63
75217;HTU21D;63800;51.972;5.682;2023-07-16T15:21:29;22.42;53.81
75217;HTU21D;63800;51.972;5.682;2023-07-16T15:23:55;22.97;52.42